createdAt,value
2023-03-12T00:03:33.688Z,-1.36
2023-03-12T00:08:42.149Z,-1.39
2023-03-12T00:13:53.605Z,-1.39
2023-03-12T00:19:01.453Z,-1.39
2023-03-12T00:24:10.346Z,-1.40
2023-03-12T00:29:17.891Z,-1.42
2023-03-12T00:34:25.812Z,-1.45
2023-03-12T00:39:33.507Z,-1.47
2023-03-12T00:44:41.646Z,-1.50
2023-03-12T00:49:49.146Z,-1.50
2023-03-12T00:54:59.155Z,-1.49
2023-03-12T01:00:10.824Z,-1.49
2023-03-12T01:05:19.631Z,-1.50
2023-03-12T01:10:27.152Z,-1.52
2023-03-12T01:15:34.862Z,-1.49
2023-03-12T01:20:43.014Z,-1.48
2023-03-12T01:25:52.337Z,-1.52
2023-03-12T01:30:59.649Z,-1.57
2023-03-12T01:36:17.348Z,-1.62
2023-03-12T01:41:23.675Z,-1.67
2023-03-12T01:46:34.572Z,-1.71
2023-03-12T01:51:44.316Z,-1.76
2023-03-12T01:56:53.413Z,-1.79
2023-03-12T02:02:01.394Z,-1.83
2023-03-12T02:07:11.950Z,-1.90
2023-03-12T02:12:20.073Z,-1.98
2023-03-12T02:17:28.524Z,-2.04
2023-03-12T02:22:37.895Z,-2.06
2023-03-12T02:27:45.606Z,-2.06
2023-03-12T02:32:54.976Z,-2.05
2023-03-12T02:46:02.515Z,-2.00
2023-03-12T02:51:10.929Z,-2.05
2023-03-12T02:56:19.243Z,-2.07
2023-03-12T03:01:27.125Z,-2.06
2023-03-12T03:10:04.749Z,-2.00
2023-03-12T03:15:14.425Z,-2.03
2023-03-12T03:20:22.991Z,-2.03
2023-03-12T03:25:31.321Z,-2.05
2023-03-12T03:30:39.215Z,-2.07
2023-03-12T03:35:46.796Z,-2.05
2023-03-12T03:40:55.085Z,-2.00
2023-03-12T03:46:04.164Z,-1.96
2023-03-12T03:51:13.215Z,-1.94
2023-03-12T03:56:20.942Z,-1.93
2023-03-12T04:01:29.371Z,-1.88
2023-03-12T04:06:37.379Z,-1.82
2023-03-12T04:11:44.780Z,-1.75
2023-03-12T04:16:52.287Z,-1.71
2023-03-12T04:21:59.901Z,-1.68
2023-03-12T04:27:07.782Z,-1.66
2023-03-12T04:32:15.865Z,-1.63
2023-03-12T04:37:23.440Z,-1.62
2023-03-12T04:42:30.866Z,-1.61
2023-03-12T04:47:39.106Z,-1.63
2023-03-12T04:52:46.578Z,-1.68
2023-03-12T04:57:53.777Z,-1.73
2023-03-12T05:02:59.354Z,-1.78
2023-03-12T05:08:07.932Z,-1.85
2023-03-12T05:13:21.220Z,-1.87
2023-03-12T05:18:28.817Z,-1.87
2023-03-12T05:23:37.041Z,-1.87
2023-03-12T05:28:44.360Z,-1.88
2023-03-12T05:33:53.054Z,-1.87
2023-03-12T05:39:00.823Z,-1.85
2023-03-12T05:44:08.672Z,-1.81
2023-03-12T05:49:16.439Z,-1.77
2023-03-12T05:54:24.667Z,-1.68
2023-03-12T05:59:32.327Z,-1.58
2023-03-12T06:04:40.392Z,-1.53
2023-03-12T06:09:48.149Z,-1.49
2023-03-12T06:14:56.304Z,-1.44
2023-03-12T06:20:04.238Z,-1.42
2023-03-12T06:25:12.865Z,-1.39
2023-03-12T06:30:21.545Z,-1.37
2023-03-12T06:35:29.762Z,-1.29
2023-03-12T06:40:37.786Z,-1.19
2023-03-12T06:45:46.380Z,-1.13
2023-03-12T06:50:54.610Z,-1.05
2023-03-12T06:56:03.762Z,-0.98
2023-03-12T07:01:11.500Z,-0.91
2023-03-12T07:06:21.725Z,-0.85
2023-03-12T07:11:29.681Z,-0.78
2023-03-12T07:16:37.293Z,-0.71
2023-03-12T07:21:44.484Z,-0.64
2023-03-12T07:26:50.123Z,-0.58
2023-03-12T07:31:57.421Z,-0.48
2023-03-12T07:37:03.484Z,-0.39
2023-03-12T07:42:12.930Z,-0.31
2023-03-12T07:47:23.969Z,-0.16
2023-03-12T07:52:34.156Z,0.03
2023-03-12T07:57:42.623Z,0.16
2023-03-12T08:02:50.325Z,0.21
2023-03-12T08:07:57.762Z,0.26
2023-03-12T08:13:03.459Z,0.32
2023-03-12T08:18:10.916Z,0.40
2023-03-12T08:23:18.518Z,0.56
2023-03-12T08:28:26.753Z,0.78
2023-03-12T08:33:34.151Z,0.93
2023-03-12T08:38:42.176Z,1.06
2023-03-12T08:43:49.992Z,1.17
2023-03-12T08:48:57.914Z,1.22
2023-03-12T08:54:06.312Z,1.30
2023-03-12T08:59:14.552Z,1.38
2023-03-12T09:04:22.075Z,1.46
2023-03-12T09:09:29.882Z,1.58
2023-03-12T09:15:05.535Z,1.66
2023-03-12T09:20:08.723Z,1.68
2023-03-12T09:25:17.179Z,1.72
2023-03-12T09:30:27.291Z,1.79
2023-03-12T09:35:34.781Z,1.84
2023-03-12T09:40:46.151Z,1.99
2023-03-12T09:45:55.112Z,2.13
2023-03-12T09:51:06.583Z,2.18
2023-03-12T09:56:18.434Z,2.27
2023-03-12T10:01:40.250Z,2.37
2023-03-12T10:06:54.251Z,2.42
2023-03-12T10:12:10.644Z,2.38
2023-03-12T10:17:43.051Z,2.26
2023-03-12T10:22:59.558Z,2.29
2023-03-12T10:28:16.929Z,2.42
2023-03-12T10:33:26.643Z,2.59
2023-03-12T10:38:34.067Z,2.77
2023-03-12T10:43:42.261Z,2.81
2023-03-12T10:48:52.002Z,2.78
2023-03-12T10:53:59.669Z,2.67
2023-03-12T10:59:24.314Z,2.63
2023-03-12T11:04:34.183Z,2.77
2023-03-12T11:09:42.316Z,2.85
2023-03-12T11:14:50.630Z,2.88
2023-03-12T11:19:58.232Z,3.03
2023-03-12T11:25:09.117Z,3.19
2023-03-12T11:30:21.845Z,3.36
2023-03-12T11:35:41.377Z,3.44
2023-03-12T11:41:06.975Z,3.46
2023-03-12T11:46:31.163Z,3.38
2023-03-12T11:51:52.446Z,3.39
2023-03-12T11:57:03.772Z,3.48
2023-03-12T12:02:32.310Z,3.56
2023-03-12T12:07:53.380Z,3.60
2023-03-12T12:13:12.809Z,3.49
2023-03-12T12:18:44.278Z,3.39
2023-03-12T12:24:02.225Z,3.43
2023-03-12T12:29:27.352Z,3.51
2023-03-12T12:35:06.552Z,3.62
2023-03-12T12:40:22.532Z,3.76
2023-03-12T12:45:31.656Z,3.80
2023-03-12T12:50:41.380Z,3.85
2023-03-12T12:56:00.347Z,3.89
2023-03-12T13:01:09.629Z,3.94
2023-03-12T13:06:17.919Z,4.01
2023-03-12T13:11:41.013Z,4.09
2023-03-12T13:16:49.368Z,4.24
2023-03-12T13:22:10.833Z,4.37
2023-03-12T13:27:23.893Z,4.39
2023-03-12T13:33:14.266Z,4.44
2023-03-12T13:44:01.981Z,4.53
2023-03-12T13:49:17.577Z,4.55
2023-03-12T13:54:28.823Z,4.53
2023-03-12T13:59:36.744Z,4.50
2023-03-12T14:04:45.652Z,4.47
2023-03-12T14:10:07.554Z,4.44
2023-03-12T14:15:27.586Z,4.52
2023-03-12T14:20:41.790Z,4.54
2023-03-12T14:25:50.926Z,4.52
2023-03-12T14:31:03.538Z,4.47
2023-03-12T14:36:17.157Z,4.37
2023-03-12T14:41:27.892Z,4.30
2023-03-12T14:46:35.476Z,4.30
2023-03-12T14:51:45.159Z,4.30
2023-03-12T14:56:53.595Z,4.26
2023-03-12T15:02:05.890Z,4.19
2023-03-12T15:07:16.882Z,4.16
2023-03-12T15:12:26.550Z,4.15
2023-03-12T15:17:35.987Z,4.17
2023-03-12T15:22:43.989Z,4.20
2023-03-12T15:28:01.549Z,4.19
2023-03-12T15:33:11.227Z,4.14
2023-03-12T15:38:23.706Z,4.09
2023-03-12T15:43:32.787Z,4.05
2023-03-12T15:48:42.851Z,4.03
2023-03-12T15:54:03.051Z,4.00
2023-03-12T15:59:24.916Z,3.99
2023-03-12T16:04:32.714Z,3.97
2023-03-12T16:09:41.541Z,3.96
2023-03-12T16:14:50.982Z,3.92
2023-03-12T16:19:58.429Z,3.90
2023-03-12T16:25:07.105Z,3.85
2023-03-12T16:30:20.146Z,3.80
2023-03-12T16:35:28.849Z,3.76
2023-03-12T16:40:38.896Z,3.68
2023-03-12T16:45:48.509Z,3.61
2023-03-12T16:50:57.878Z,3.56
2023-03-12T16:56:07.136Z,3.51
2023-03-12T17:01:19.042Z,3.48
2023-03-12T17:06:27.655Z,3.46
2023-03-12T17:11:35.376Z,3.44
2023-03-12T17:16:42.893Z,3.43
2023-03-12T17:21:51.048Z,3.41
2023-03-12T17:26:58.802Z,3.38
2023-03-12T17:32:06.091Z,3.35
2023-03-12T17:37:13.253Z,3.31
2023-03-12T17:44:35.024Z,3.29
2023-03-12T17:49:44.040Z,3.24
2023-03-12T17:54:52.077Z,3.19
2023-03-12T18:00:00.609Z,3.13
2023-03-12T18:05:09.717Z,3.08
2023-03-12T18:10:17.463Z,3.02
2023-03-12T18:15:25.010Z,2.97
2023-03-12T18:20:39.055Z,2.90
2023-03-12T18:25:47.640Z,2.85
2023-03-12T18:30:57.506Z,2.80
2023-03-12T18:36:06.489Z,2.78
2023-03-12T18:41:15.584Z,2.76
2023-03-12T18:46:25.337Z,2.71
2023-03-12T18:51:33.939Z,2.67
2023-03-12T18:56:51.306Z,2.61
2023-03-12T19:01:59.340Z,2.52
2023-03-12T19:07:06.937Z,2.46
2023-03-12T19:12:15.646Z,2.42
2023-03-12T19:17:25.485Z,2.41
2023-03-12T19:22:34.641Z,2.41
2023-03-12T19:27:44.634Z,2.41
2023-03-12T19:32:55.521Z,2.41
2023-03-12T19:38:03.638Z,2.39
2023-03-12T19:43:12.060Z,2.38
2023-03-12T19:48:20.002Z,2.38
2023-03-12T19:53:27.428Z,2.40
2023-03-12T19:58:39.448Z,2.42
2023-03-12T20:03:47.829Z,2.43
2023-03-12T20:08:57.284Z,2.45
2023-03-12T20:14:04.918Z,2.45
2023-03-12T20:19:12.912Z,2.46
2023-03-12T20:24:21.146Z,2.47
2023-03-12T20:29:28.909Z,2.47
2023-03-12T20:34:38.035Z,2.48
2023-03-12T20:39:46.653Z,2.48
2023-03-12T20:44:57.165Z,2.49
2023-03-12T20:50:06.377Z,2.49
2023-03-12T20:55:14.641Z,2.49
2023-03-12T21:00:23.984Z,2.47
2023-03-12T21:05:32.040Z,2.47
2023-03-12T21:10:40.613Z,2.46
2023-03-12T21:15:48.793Z,2.45
2023-03-12T21:20:56.177Z,2.44
2023-03-12T21:26:09.075Z,2.43
2023-03-12T21:31:19.002Z,2.41
2023-03-12T21:36:27.519Z,2.41
2023-03-12T21:41:35.249Z,2.40
2023-03-12T21:46:43.739Z,2.40
2023-03-12T21:51:54.323Z,2.40
2023-03-12T21:57:03.834Z,2.39
2023-03-12T22:02:14.901Z,2.38
2023-03-12T22:07:22.544Z,2.38
2023-03-12T22:12:32.335Z,2.38
2023-03-12T22:17:40.977Z,2.39
2023-03-12T22:22:48.375Z,2.39
2023-03-12T22:27:56.766Z,2.40
2023-03-12T22:33:07.031Z,2.40
2023-03-12T22:38:15.992Z,2.40
2023-03-12T22:43:26.258Z,2.39
2023-03-12T22:48:34.211Z,2.40
2023-03-12T22:53:42.260Z,2.39
2023-03-12T22:58:50.398Z,2.38
2023-03-12T23:03:58.169Z,2.36
2023-03-12T23:09:05.793Z,2.36
2023-03-12T23:14:14.195Z,2.36
2023-03-12T23:19:22.413Z,2.37
2023-03-12T23:24:31.196Z,2.39
2023-03-12T23:29:39.684Z,2.40
2023-03-12T23:34:47.061Z,2.42
2023-03-12T23:39:55.262Z,2.44
2023-03-12T23:45:02.914Z,2.46
2023-03-12T23:50:12.196Z,2.51
2023-03-12T23:55:20.071Z,2.56
